sensor_id;sensor_type;location;lat;lon;timestamp;pressure;altitude;pressure_sealevel;temperature;humidity
52249;BME280;38541;48.130;8.378;2022-12-29T00:00:16;92393.44;;;7.51;63.09
52249;BME280;38541;48.130;8.378;2022-12-29T00:02:42;92400.31;;;7.67;62.77
52249;BME280;38541;48.130;8.378;2022-12-29T00:05:09;92401.03;;;7.95;61.23
52249;BME280;38541;48.130;8.378;2022-12-29T00:07:35;92423.81;;;8.00;61.64
52249;BME280;38541;48.130;8.378;2022-12-29T00:10:02;92399.31;;;8.17;60.54
52249;BME280;38541;48.130;8.378;2022-12-29T00:12:28;92392.75;;;8.14;61.39
52249;BME280;38541;48.130;8.378;2022-12-29T00:15:15;92415.31;;;8.25;59.13
52249;BME280;38541;48.130;8.378;2022-12-29T00:18:00;92399.63;;;8.36;59.33
52249;BME280;38541;48.130;8.378;2022-12-29T00:20:27;92415.63;;;8.39;58.44
52249;BME280;38541;48.130;8.378;2022-12-29T00:23:12;92406.47;;;8.47;58.11
52249;BME280;38541;48.130;8.378;2022-12-29T00:25:57;92405.47;;;8.53;58.09
52249;BME280;38541;48.130;8.378;2022-12-29T00:28:43;92413.38;;;8.64;57.77
52249;BME280;38541;48.130;8.378;2022-12-29T00:31:28;92385.63;;;8.63;57.90
52249;BME280;38541;48.130;8.378;2022-12-29T00:34:13;92384.31;;;8.70;56.77
52249;BME280;38541;48.130;8.378;2022-12-29T00:36:58;92389.81;;;8.74;56.48
52249;BME280;38541;48.130;8.378;2022-12-29T00:39:25;92373.34;;;8.74;56.59
52249;BME280;38541;48.130;8.378;2022-12-29T00:42:10;92376.22;;;8.82;56.00
52249;BME280;38541;48.130;8.378;2022-12-29T00:44:55;92372.81;;;8.77;56.15
52249;BME280;38541;48.130;8.378;2022-12-29T00:47:22;92388.00;;;8.75;56.82
52249;BME280;38541;48.130;8.378;2022-12-29T00:49:48;92372.81;;;8.77;55.85
52249;BME280;38541;48.130;8.378;2022-12-29T00:52:16;92404.53;;;8.85;55.42
52249;BME280;38541;48.130;8.378;2022-12-29T00:54:44;92367.31;;;8.89;55.03
52249;BME280;38541;48.130;8.378;2022-12-29T00:57:11;92362.06;;;8.94;54.90
52249;BME280;38541;48.130;8.378;2022-12-29T00:59:39;92351.06;;;8.97;55.30
52249;BME280;38541;48.130;8.378;2022-12-29T01:02:07;92367.84;;;8.96;55.00
52249;BME280;38541;48.130;8.378;2022-12-29T01:04:34;92361.03;;;9.00;54.31
52249;BME280;38541;48.130;8.378;2022-12-29T01:07:01;92381.75;;;8.96;53.92
52249;BME280;38541;48.130;8.378;2022-12-29T01:09:27;92371.78;;;9.04;53.74
52249;BME280;38541;48.130;8.378;2022-12-29T01:12:12;92349.78;;;9.10;52.60
52249;BME280;38541;48.130;8.378;2022-12-29T01:14:40;92351.59;;;9.09;52.71
52249;BME280;38541;48.130;8.378;2022-12-29T01:17:06;92377.81;;;9.09;53.09
52249;BME280;38541;48.130;8.378;2022-12-29T01:19:33;92333.78;;;9.11;52.53
52249;BME280;38541;48.130;8.378;2022-12-29T01:22:00;92360.53;;;9.08;52.27
52249;BME280;38541;48.130;8.378;2022-12-29T01:24:27;92374.69;;;9.02;52.89
52249;BME280;38541;48.130;8.378;2022-12-29T01:26:53;92361.06;;;9.05;52.40
52249;BME280;38541;48.130;8.378;2022-12-29T01:29:21;92358.44;;;9.05;51.95
52249;BME280;38541;48.130;8.378;2022-12-29T01:31:47;92390.91;;;9.09;51.95
52249;BME280;38541;48.130;8.378;2022-12-29T01:34:16;92376.25;;;9.13;51.78
52249;BME280;38541;48.130;8.378;2022-12-29T01:36:43;92384.09;;;9.08;52.70
52249;BME280;38541;48.130;8.378;2022-12-29T01:39:12;92366.53;;;9.04;52.94
52249;BME280;38541;48.130;8.378;2022-12-29T01:41:41;92383.59;;;9.01;53.62
52249;BME280;38541;48.130;8.378;2022-12-29T01:44:46;92400.59;;;8.98;53.33
52249;BME280;38541;48.130;8.378;2022-12-29T01:47:29;92400.88;;;9.02;53.77
52249;BME280;38541;48.130;8.378;2022-12-29T01:49:59;92419.72;;;8.99;53.43
52249;BME280;38541;48.130;8.378;2022-12-29T01:52:30;92387.78;;;9.02;54.13
52249;BME280;38541;48.130;8.378;2022-12-29T01:54:59;92386.69;;;8.98;54.34
52249;BME280;38541;48.130;8.378;2022-12-29T01:57:32;92382.25;;;8.93;54.47
52249;BME280;38541;48.130;8.378;2022-12-29T02:00:07;92382.75;;;8.85;54.35
52249;BME280;38541;48.130;8.378;2022-12-29T02:02:47;92418.91;;;8.83;54.39
52249;BME280;38541;48.130;8.378;2022-12-29T02:05:27;92397.72;;;8.90;54.80
52249;BME280;38541;48.130;8.378;2022-12-29T02:07:55;92389.28;;;8.77;55.42
52249;BME280;38541;48.130;8.378;2022-12-29T02:10:24;92398.19;;;8.76;55.24
52249;BME280;38541;48.130;8.378;2022-12-29T02:12:53;92405.00;;;8.72;55.13
52249;BME280;38541;48.130;8.378;2022-12-29T02:15:40;92425.44;;;8.75;55.09
52249;BME280;38541;48.130;8.378;2022-12-29T02:21:09;92422.28;;;8.78;55.68
52249;BME280;38541;48.130;8.378;2022-12-29T02:27:25;92413.38;;;8.69;56.67
52249;BME280;38541;48.130;8.378;2022-12-29T02:32:59;92388.25;;;8.73;57.19
52249;BME280;38541;48.130;8.378;2022-12-29T02:35:54;92396.09;;;8.68;57.26
52249;BME280;38541;48.130;8.378;2022-12-29T02:38:50;92414.69;;;8.66;57.50
52249;BME280;38541;48.130;8.378;2022-12-29T02:41:26;92415.19;;;8.63;57.68
52249;BME280;38541;48.130;8.378;2022-12-29T02:46:38;92400.81;;;8.66;57.98
52249;BME280;38541;48.130;8.378;2022-12-29T02:50:14;92395.53;;;8.61;58.22
52249;BME280;38541;48.130;8.378;2022-12-29T02:52:14;92400.00;;;8.60;58.05
52249;BME280;38541;48.130;8.378;2022-12-29T02:54:41;92390.31;;;8.61;57.92
52249;BME280;38541;48.130;8.378;2022-12-29T02:57:14;92384.06;;;8.67;58.36
52249;BME280;38541;48.130;8.378;2022-12-29T02:59:44;92377.25;;;8.66;58.38
52249;BME280;38541;48.130;8.378;2022-12-29T03:02:20;92386.13;;;8.60;58.72
52249;BME280;38541;48.130;8.378;2022-12-29T03:05:22;92410.75;;;8.64;58.99
52249;BME280;38541;48.130;8.378;2022-12-29T03:08:12;92404.19;;;8.61;58.80
52249;BME280;38541;48.130;8.378;2022-12-29T03:10:59;92384.31;;;8.65;59.05
52249;BME280;38541;48.130;8.378;2022-12-29T03:13:38;92394.25;;;8.58;58.90
52249;BME280;38541;48.130;8.378;2022-12-29T03:16:53;92397.13;;;8.62;59.20
52249;BME280;38541;48.130;8.378;2022-12-29T03:22:01;92403.91;;;8.57;58.96
52249;BME280;38541;48.130;8.378;2022-12-29T03:24:59;92381.91;;;8.59;59.55
52249;BME280;38541;48.130;8.378;2022-12-29T03:27:30;92389.50;;;8.50;59.84
52249;BME280;38541;48.130;8.378;2022-12-29T03:30:01;92393.44;;;8.52;59.59
52249;BME280;38541;48.130;8.378;2022-12-29T03:32:36;92395.53;;;8.55;59.83
52249;BME280;38541;48.130;8.378;2022-12-29T03:35:08;92385.81;;;8.51;60.04
52249;BME280;38541;48.130;8.378;2022-12-29T03:37:41;92367.53;;;8.56;60.08
52249;BME280;38541;48.130;8.378;2022-12-29T03:40:10;92353.13;;;8.53;59.85
52249;BME280;38541;48.130;8.378;2022-12-29T03:42:38;92364.13;;;8.55;60.02
52249;BME280;38541;48.130;8.378;2022-12-29T03:45:07;92365.97;;;8.55;59.06
52249;BME280;38541;48.130;8.378;2022-12-29T03:47:35;92359.91;;;8.54;59.86
52249;BME280;38541;48.130;8.378;2022-12-29T03:50:02;92358.34;;;8.53;59.42
52249;BME280;38541;48.130;8.378;2022-12-29T03:52:33;92361.50;;;8.55;59.98
52249;BME280;38541;48.130;8.378;2022-12-29T03:54:59;92353.59;;;8.45;59.98
52249;BME280;38541;48.130;8.378;2022-12-29T03:57:26;92349.41;;;8.49;60.04
52249;BME280;38541;48.130;8.378;2022-12-29T03:59:59;92346.28;;;8.47;60.07
52249;BME280;38541;48.130;8.378;2022-12-29T04:02:29;92333.16;;;8.42;60.64
52249;BME280;38541;48.130;8.378;2022-12-29T04:04:55;92339.44;;;8.41;60.26
52249;BME280;38541;48.130;8.378;2022-12-29T04:07:22;92347.03;;;8.37;60.25
52249;BME280;38541;48.130;8.378;2022-12-29T04:09:51;92358.81;;;8.40;60.25
52249;BME280;38541;48.130;8.378;2022-12-29T04:12:22;92347.56;;;8.39;60.55
52249;BME280;38541;48.130;8.378;2022-12-29T04:14:48;92356.22;;;8.45;60.67
52249;BME280;38541;48.130;8.378;2022-12-29T04:17:15;92349.94;;;8.46;60.33
52249;BME280;38541;48.130;8.378;2022-12-29T04:19:43;92344.72;;;8.51;60.57
52249;BME280;38541;48.130;8.378;2022-12-29T04:22:10;92351.03;;;8.55;60.59
52249;BME280;38541;48.130;8.378;2022-12-29T04:24:38;92352.88;;;8.60;60.84
52249;BME280;38541;48.130;8.378;2022-12-29T04:27:05;92356.25;;;8.50;60.74
52249;BME280;38541;48.130;8.378;2022-12-29T04:30:01;92353.63;;;8.55;60.98
52249;BME280;38541;48.130;8.378;2022-12-29T04:32:39;92345.25;;;8.59;61.17
52249;BME280;38541;48.130;8.378;2022-12-29T04:35:06;92352.06;;;8.60;61.27
52249;BME280;38541;48.130;8.378;2022-12-29T04:37:32;92343.69;;;8.57;61.41
52249;BME280;38541;48.130;8.378;2022-12-29T04:39:59;92353.66;;;8.61;61.46
52249;BME280;38541;48.130;8.378;2022-12-29T04:42:26;92354.44;;;8.56;61.91
52249;BME280;38541;48.130;8.378;2022-12-29T04:44:53;92365.97;;;8.60;61.74
52249;BME280;38541;48.130;8.378;2022-12-29T04:47:34;92368.59;;;8.60;62.35
52249;BME280;38541;48.130;8.378;2022-12-29T04:50:32;92364.63;;;8.57;62.78
52249;BME280;38541;48.130;8.378;2022-12-29T04:53:21;92370.41;;;8.54;62.60
52249;BME280;38541;48.130;8.378;2022-12-29T04:55:49;92378.25;;;8.54;62.84
52249;BME280;38541;48.130;8.378;2022-12-29T04:58:17;92375.63;;;8.54;63.34
52249;BME280;38541;48.130;8.378;2022-12-29T05:00:49;92370.41;;;8.54;63.58
52249;BME280;38541;48.130;8.378;2022-12-29T05:03:15;92360.44;;;8.62;63.35
52249;BME280;38541;48.130;8.378;2022-12-29T05:05:43;92371.97;;;8.50;63.50
52249;BME280;38541;48.130;8.378;2022-12-29T05:08:10;92358.34;;;8.53;63.62
52249;BME280;38541;48.130;8.378;2022-12-29T05:10:37;92371.16;;;8.50;63.80
52249;BME280;38541;48.130;8.378;2022-12-29T05:13:09;92351.53;;;8.52;63.70
52249;BME280;38541;48.130;8.378;2022-12-29T05:15:36;92364.38;;;8.54;63.48
52249;BME280;38541;48.130;8.378;2022-12-29T05:18:02;92346.06;;;8.54;63.71
52249;BME280;38541;48.130;8.378;2022-12-29T05:20:29;92337.94;;;8.55;63.46
52249;BME280;38541;48.130;8.378;2022-12-29T05:22:56;92355.75;;;8.59;63.18
52249;BME280;38541;48.130;8.378;2022-12-29T05:25:22;92350.78;;;8.57;62.60
52249;BME280;38541;48.130;8.378;2022-12-29T05:27:56;92345.28;;;8.64;62.51
52249;BME280;38541;48.130;8.378;2022-12-29T05:30:39;92356.81;;;8.68;62.95
52249;BME280;38541;48.130;8.378;2022-12-29T05:33:05;92352.88;;;8.70;62.59
52249;BME280;38541;48.130;8.378;2022-12-29T05:35:33;92356.81;;;8.68;62.11
52249;BME280;38541;48.130;8.378;2022-12-29T05:38:00;92357.34;;;8.70;62.48
52249;BME280;38541;48.130;8.378;2022-12-29T05:40:26;92369.13;;;8.73;61.96
52249;BME280;38541;48.130;8.378;2022-12-29T05:42:56;92356.53;;;8.69;61.96
52249;BME280;38541;48.130;8.378;2022-12-29T05:45:48;92355.25;;;8.72;61.88
52249;BME280;38541;48.130;8.378;2022-12-29T05:48:44;92358.38;;;8.74;61.49
52249;BME280;38541;48.130;8.378;2022-12-29T05:51:24;92360.75;;;8.76;61.78
52249;BME280;38541;48.130;8.378;2022-12-29T05:53:52;92362.09;;;8.83;61.69
52249;BME280;38541;48.130;8.378;2022-12-29T05:56:19;92361.56;;;8.81;61.42
52249;BME280;38541;48.130;8.378;2022-12-29T05:58:52;92357.38;;;8.85;61.41
52249;BME280;38541;48.130;8.378;2022-12-29T06:01:20;92350.56;;;8.90;61.06
52249;BME280;38541;48.130;8.378;2022-12-29T06:03:47;92363.13;;;8.88;61.45
52249;BME280;38541;48.130;8.378;2022-12-29T06:06:15;92353.16;;;8.95;61.04
52249;BME280;38541;48.130;8.378;2022-12-29T06:08:42;92333.78;;;8.96;61.19
52249;BME280;38541;48.130;8.378;2022-12-29T06:11:09;92348.47;;;8.92;60.76
52249;BME280;38541;48.130;8.378;2022-12-29T06:13:36;92358.41;;;8.95;60.33
52249;BME280;38541;48.130;8.378;2022-12-29T06:16:03;92339.53;;;8.98;60.67
52249;BME280;38541;48.130;8.378;2022-12-29T06:18:30;92334.81;;;9.00;60.05
52249;BME280;38541;48.130;8.378;2022-12-29T06:21:04;92338.22;;;9.06;60.56
52249;BME280;38541;48.130;8.378;2022-12-29T06:23:31;92335.91;;;9.04;60.10
52249;BME280;38541;48.130;8.378;2022-12-29T06:25:58;92320.16;;;9.04;60.22
52249;BME280;38541;48.130;8.378;2022-12-29T06:28:24;92324.91;;;9.02;60.04
52249;BME280;38541;48.130;8.378;2022-12-29T06:30:51;92325.66;;;9.08;59.78
52249;BME280;38541;48.130;8.378;2022-12-29T06:33:18;92318.84;;;9.07;59.79
52249;BME280;38541;48.130;8.378;2022-12-29T06:35:45;92313.88;;;9.10;60.07
52249;BME280;38541;48.130;8.378;2022-12-29T06:38:13;92317.53;;;9.09;60.23
52249;BME280;38541;48.130;8.378;2022-12-29T06:40:41;92314.41;;;9.02;59.90
52249;BME280;38541;48.130;8.378;2022-12-29T06:43:26;92312.56;;;8.97;59.95
52249;BME280;38541;48.130;8.378;2022-12-29T06:46:11;92324.63;;;8.93;59.64
52249;BME280;38541;48.130;8.378;2022-12-29T06:48:38;92317.81;;;8.92;59.66
52249;BME280;38541;48.130;8.378;2022-12-29T06:51:04;92296.59;;;8.89;59.59
52249;BME280;38541;48.130;8.378;2022-12-29T06:53:30;92321.47;;;8.86;59.61
52249;BME280;38541;48.130;8.378;2022-12-29T06:55:57;92328.53;;;8.91;59.57
52249;BME280;38541;48.130;8.378;2022-12-29T06:58:23;92307.59;;;8.91;59.41
52249;BME280;38541;48.130;8.378;2022-12-29T07:00:50;92307.06;;;8.94;58.98
52249;BME280;38541;48.130;8.378;2022-12-29T07:03:16;92319.88;;;8.90;59.36
52249;BME280;38541;48.130;8.378;2022-12-29T07:05:43;92304.97;;;8.91;59.48
52249;BME280;38541;48.130;8.378;2022-12-29T07:08:09;92321.22;;;8.93;58.99
52249;BME280;38541;48.130;8.378;2022-12-29T07:10:36;92322.78;;;8.94;58.98
52249;BME280;38541;48.130;8.378;2022-12-29T07:13:02;92329.59;;;8.90;58.93
52249;BME280;38541;48.130;8.378;2022-12-29T07:15:29;92322.00;;;8.83;59.17
52249;BME280;38541;48.130;8.378;2022-12-29T07:17:55;92318.06;;;8.85;58.44
52249;BME280;38541;48.130;8.378;2022-12-29T07:20:22;92311.78;;;8.92;58.71
52249;BME280;38541;48.130;8.378;2022-12-29T07:22:52;92330.63;;;8.94;59.05
52249;BME280;38541;48.130;8.378;2022-12-29T07:25:19;92326.97;;;8.95;59.02
52249;BME280;38541;48.130;8.378;2022-12-29T07:27:45;92338.00;;;9.02;58.81
52249;BME280;38541;48.130;8.378;2022-12-29T07:30:12;92344.25;;;8.96;58.12
52249;BME280;38541;48.130;8.378;2022-12-29T07:32:38;92332.47;;;9.04;58.38
52249;BME280;38541;48.130;8.378;2022-12-29T07:35:05;92347.94;;;9.05;58.14
52249;BME280;38541;48.130;8.378;2022-12-29T07:37:33;92340.34;;;9.14;57.63
52249;BME280;38541;48.130;8.378;2022-12-29T07:40:01;92334.03;;;9.20;57.59
52249;BME280;38541;48.130;8.378;2022-12-29T07:42:30;92325.66;;;9.23;57.66
52249;BME280;38541;48.130;8.378;2022-12-29T07:44:58;92346.09;;;9.21;58.44
52249;BME280;38541;48.130;8.378;2022-12-29T07:47:29;92346.91;;;9.22;57.84
52249;BME280;38541;48.130;8.378;2022-12-29T07:49:55;92350.28;;;9.27;57.69
52249;BME280;38541;48.130;8.378;2022-12-29T07:52:21;92342.16;;;9.29;57.39
52249;BME280;38541;48.130;8.378;2022-12-29T07:54:48;92356.06;;;9.35;57.68
52249;BME280;38541;48.130;8.378;2022-12-29T07:57:14;92362.34;;;9.39;57.63
52249;BME280;38541;48.130;8.378;2022-12-29T07:59:41;92355.25;;;9.45;57.56
52249;BME280;38541;48.130;8.378;2022-12-29T08:02:10;92397.75;;;9.41;57.86
52249;BME280;38541;48.130;8.378;2022-12-29T08:04:37;92352.66;;;9.39;58.16
52249;BME280;38541;48.130;8.378;2022-12-29T08:07:04;92365.75;;;9.45;57.78
52249;BME280;38541;48.130;8.378;2022-12-29T08:09:30;92372.81;;;9.44;58.06
52249;BME280;38541;48.130;8.378;2022-12-29T08:11:57;92382.03;;;9.41;57.85
52249;BME280;38541;48.130;8.378;2022-12-29T08:14:23;92379.91;;;9.44;58.59
52249;BME280;38541;48.130;8.378;2022-12-29T08:16:50;92382.81;;;9.32;60.26
52249;BME280;38541;48.130;8.378;2022-12-29T08:19:16;92405.34;;;9.33;60.51
52249;BME280;38541;48.130;8.378;2022-12-29T08:21:43;92397.50;;;9.33;61.85
52249;BME280;38541;48.130;8.378;2022-12-29T08:24:09;92407.19;;;9.27;61.54
52249;BME280;38541;48.130;8.378;2022-12-29T08:26:36;92421.84;;;9.12;62.24
52249;BME280;38541;48.130;8.378;2022-12-29T08:29:02;92420.53;;;9.10;64.53
52249;BME280;38541;48.130;8.378;2022-12-29T08:31:29;92406.38;;;9.06;65.24
52249;BME280;38541;48.130;8.378;2022-12-29T08:33:56;92412.38;;;8.96;66.19
52249;BME280;38541;48.130;8.378;2022-12-29T08:36:22;92407.41;;;8.99;66.61
52249;BME280;38541;48.130;8.378;2022-12-29T08:38:49;92405.56;;;8.84;66.38
52249;BME280;38541;48.130;8.378;2022-12-29T08:41:15;92412.09;;;8.82;66.57
52249;BME280;38541;48.130;8.378;2022-12-29T08:43:46;92397.19;;;8.82;66.59
52249;BME280;38541;48.130;8.378;2022-12-29T08:46:13;92391.94;;;8.88;66.60
52249;BME280;38541;48.130;8.378;2022-12-29T08:48:39;92405.03;;;8.88;65.36
52249;BME280;38541;48.130;8.378;2022-12-29T08:51:06;92409.22;;;8.83;65.23
52249;BME280;38541;48.130;8.378;2022-12-29T08:53:34;92408.97;;;8.85;65.43
52249;BME280;38541;48.130;8.378;2022-12-29T08:56:01;92404.00;;;8.89;65.02
52249;BME280;38541;48.130;8.378;2022-12-29T08:58:39;92411.34;;;8.97;64.83
52249;BME280;38541;48.130;8.378;2022-12-29T09:01:07;92402.44;;;8.93;64.81
52249;BME280;38541;48.130;8.378;2022-12-29T09:03:33;92408.19;;;8.90;64.63
52249;BME280;38541;48.130;8.378;2022-12-29T09:06:20;92420.00;;;8.92;64.50
52249;BME280;38541;48.130;8.378;2022-12-29T09:08:47;92412.38;;;8.96;64.59
52249;BME280;38541;48.130;8.378;2022-12-29T09:11:21;92424.47;;;9.02;64.35
52249;BME280;38541;48.130;8.378;2022-12-29T09:13:48;92418.41;;;8.96;64.22
52249;BME280;38541;48.130;8.378;2022-12-29T09:16:15;92419.72;;;8.99;64.07
52249;BME280;38541;48.130;8.378;2022-12-29T09:18:43;92422.63;;;8.97;63.85
52249;BME280;38541;48.130;8.378;2022-12-29T09:21:11;92415.03;;;9.11;63.80
52249;BME280;38541;48.130;8.378;2022-12-29T09:23:38;92425.50;;;9.11;63.84
52249;BME280;38541;48.130;8.378;2022-12-29T09:26:05;92411.88;;;9.09;64.04
52249;BME280;38541;48.130;8.378;2022-12-29T09:28:33;92418.69;;;9.10;63.95
52249;BME280;38541;48.130;8.378;2022-12-29T09:31:00;92432.84;;;9.14;64.35
52249;BME280;38541;48.130;8.378;2022-12-29T09:33:27;92438.59;;;9.17;64.34
52249;BME280;38541;48.130;8.378;2022-12-29T09:35:55;92441.50;;;9.15;64.92
52249;BME280;38541;48.130;8.378;2022-12-29T09:38:24;92440.72;;;9.14;64.83
52249;BME280;38541;48.130;8.378;2022-12-29T09:40:53;92429.94;;;9.01;65.42
52249;BME280;38541;48.130;8.378;2022-12-29T09:46:27;92433.09;;;8.97;66.76
52249;BME280;38541;48.130;8.378;2022-12-29T09:49:23;92425.47;;;8.96;66.94
52249;BME280;38541;48.130;8.378;2022-12-29T09:51:54;92411.59;;;9.06;66.78
52249;BME280;38541;48.130;8.378;2022-12-29T09:54:48;92431.53;;;8.91;67.43
52249;BME280;38541;48.130;8.378;2022-12-29T09:57:34;92444.34;;;8.93;67.75
52249;BME280;38541;48.130;8.378;2022-12-29T10:00:11;92446.72;;;8.94;67.18
52249;BME280;38541;48.130;8.378;2022-12-29T10:02:42;92443.31;;;9.04;67.14
52249;BME280;38541;48.130;8.378;2022-12-29T10:05:40;92444.34;;;8.93;67.04
52249;BME280;38541;48.130;8.378;2022-12-29T10:19:25;92433.00;;;8.66;70.47
52249;BME280;38541;48.130;8.378;2022-12-29T10:22:21;92445.31;;;8.66;70.66
52249;BME280;38541;48.130;8.378;2022-12-29T10:24:55;92420.47;;;8.74;70.47
52249;BME280;38541;48.130;8.378;2022-12-29T10:27:23;92421.75;;;8.71;70.63
52249;BME280;38541;48.130;8.378;2022-12-29T10:29:57;92424.09;;;8.67;70.81
52249;BME280;38541;48.130;8.378;2022-12-29T10:35:37;92426.47;;;8.64;71.24
52249;BME280;38541;48.130;8.378;2022-12-29T10:38:25;92454.22;;;8.65;72.19
52249;BME280;38541;48.130;8.378;2022-12-29T10:41:11;92439.81;;;8.57;73.08
52249;BME280;38541;48.130;8.378;2022-12-29T10:43:49;92438.41;;;8.44;74.58
52249;BME280;38541;48.130;8.378;2022-12-29T10:46:19;92440.97;;;8.34;75.43
52249;BME280;38541;48.130;8.378;2022-12-29T10:48:48;92442.06;;;8.43;75.29
52249;BME280;38541;48.130;8.378;2022-12-29T10:51:21;92440.53;;;8.47;74.96
52249;BME280;38541;48.130;8.378;2022-12-29T10:53:55;92430.28;;;8.46;73.87
52249;BME280;38541;48.130;8.378;2022-12-29T10:56:35;92428.41;;;8.36;74.11
52249;BME280;38541;48.130;8.378;2022-12-29T10:59:28;92399.16;;;8.49;73.81
52249;BME280;38541;48.130;8.378;2022-12-29T11:07:29;92398.69;;;8.57;73.36
52249;BME280;38541;48.130;8.378;2022-12-29T11:10:37;92400.25;;;8.53;73.89
52249;BME280;38541;48.130;8.378;2022-12-29T11:13:11;92396.53;;;8.49;74.27
52249;BME280;38541;48.130;8.378;2022-12-29T11:15:41;92404.41;;;8.49;74.88
52249;BME280;38541;48.130;8.378;2022-12-29T11:20:54;92416.19;;;8.52;75.43
52249;BME280;38541;48.130;8.378;2022-12-29T11:23:25;92404.44;;;8.54;75.73
52249;BME280;38541;48.130;8.378;2022-12-29T11:28:40;92386.16;;;8.80;73.31
52249;BME280;38541;48.130;8.378;2022-12-29T11:31:08;92383.03;;;8.89;74.79
52249;BME280;38541;48.130;8.378;2022-12-29T11:33:38;92383.84;;;8.94;74.61
52249;BME280;38541;48.130;8.378;2022-12-29T11:36:11;92398.75;;;8.83;73.99
52249;BME280;38541;48.130;8.378;2022-12-29T11:38:42;92389.03;;;8.79;74.01
52249;BME280;38541;48.130;8.378;2022-12-29T11:41:13;92383.03;;;8.89;72.79
52249;BME280;38541;48.130;8.378;2022-12-29T11:43:46;92389.88;;;9.05;73.55
52249;BME280;38541;48.130;8.378;2022-12-29T11:46:20;92392.47;;;9.00;71.85
52249;BME280;38541;48.130;8.378;2022-12-29T11:48:49;92397.22;;;9.03;72.99
52249;BME280;38541;48.130;8.378;2022-12-29T11:51:24;92387.47;;;8.83;72.01
52249;BME280;38541;48.130;8.378;2022-12-29T11:53:56;92384.09;;;8.93;73.15
52249;BME280;38541;48.130;8.378;2022-12-29T11:56:39;92387.25;;;9.10;72.12
52249;BME280;38541;48.130;8.378;2022-12-29T12:04:44;92380.94;;;8.91;72.81
52249;BME280;38541;48.130;8.378;2022-12-29T12:07:15;92393.50;;;8.83;72.06
52249;BME280;38541;48.130;8.378;2022-12-29T12:10:01;92385.09;;;8.66;72.05
52249;BME280;38541;48.130;8.378;2022-12-29T12:12:46;92380.88;;;8.54;70.82
52249;BME280;38541;48.130;8.378;2022-12-29T12:18:37;92378.25;;;8.60;72.14
52249;BME280;38541;48.130;8.378;2022-12-29T12:21:13;92374.09;;;8.74;71.57
52249;BME280;38541;48.130;8.378;2022-12-29T12:24:02;92361.00;;;8.69;71.33
52249;BME280;38541;48.130;8.378;2022-12-29T12:26:44;92360.25;;;8.79;71.03
52249;BME280;38541;48.130;8.378;2022-12-29T12:29:40;92376.97;;;8.67;70.38
52249;BME280;38541;48.130;8.378;2022-12-29T12:34:49;92367.00;;;8.59;70.02
52249;BME280;38541;48.130;8.378;2022-12-29T12:37:42;92362.81;;;8.68;69.93
52249;BME280;38541;48.130;8.378;2022-12-29T12:48:47;92350.28;;;8.86;68.75
52249;BME280;38541;48.130;8.378;2022-12-29T12:51:43;92369.38;;;8.71;69.48
52249;BME280;38541;48.130;8.378;2022-12-29T12:56:46;92340.59;;;8.71;71.75
52249;BME280;38541;48.130;8.378;2022-12-29T12:59:26;92345.56;;;8.78;70.48
52249;BME280;38541;48.130;8.378;2022-12-29T13:05:21;92343.72;;;8.73;70.98
52249;BME280;38541;48.130;8.378;2022-12-29T13:16:36;92331.97;;;8.91;70.28
52249;BME280;38541;48.130;8.378;2022-12-29T13:19:14;92356.84;;;8.94;69.15
52249;BME280;38541;48.130;8.378;2022-12-29T13:22:06;92336.94;;;9.03;69.07
52249;BME280;38541;48.130;8.378;2022-12-29T13:24:56;92339.03;;;8.96;68.05
52249;BME280;38541;48.130;8.378;2022-12-29T13:30:21;92349.00;;;9.04;66.93
52249;BME280;38541;48.130;8.378;2022-12-29T13:32:58;92318.88;;;8.96;67.86
52249;BME280;38541;48.130;8.378;2022-12-29T13:35:55;92340.88;;;9.01;67.50
52249;BME280;38541;48.130;8.378;2022-12-29T13:38:44;92330.13;;;9.07;67.24
52249;BME280;38541;48.130;8.378;2022-12-29T13:41:39;92337.44;;;9.16;67.04
52249;BME280;38541;48.130;8.378;2022-12-29T13:44:10;92323.31;;;9.06;66.95
52249;BME280;38541;48.130;8.378;2022-12-29T13:46:43;92334.06;;;8.99;67.03
52249;BME280;38541;48.130;8.378;2022-12-29T13:49:17;92314.91;;;8.94;67.57
52249;BME280;38541;48.130;8.378;2022-12-29T13:51:49;92329.88;;;8.93;66.97
52249;BME280;38541;48.130;8.378;2022-12-29T13:57:42;92330.63;;;8.94;67.76
52249;BME280;38541;48.130;8.378;2022-12-29T14:00:16;92322.78;;;8.94;67.73
52249;BME280;38541;48.130;8.378;2022-12-29T14:07:47;92325.91;;;8.80;67.86
52249;BME280;38541;48.130;8.378;2022-12-29T14:10:28;92320.66;;;8.80;68.01
52249;BME280;38541;48.130;8.378;2022-12-29T14:13:14;92329.88;;;8.93;67.80
52249;BME280;38541;48.130;8.378;2022-12-29T14:15:45;92332.50;;;8.93;68.21
52249;BME280;38541;48.130;8.378;2022-12-29T14:18:19;92353.72;;;9.02;68.53
52249;BME280;38541;48.130;8.378;2022-12-29T14:20:54;92339.03;;;8.96;68.12
52249;BME280;38541;48.130;8.378;2022-12-29T14:23:47;92344.25;;;8.91;68.49
52249;BME280;38541;48.130;8.378;2022-12-29T14:26:18;92356.31;;;8.81;68.05
52249;BME280;38541;48.130;8.378;2022-12-29T14:31:42;92346.38;;;8.89;68.84
52249;BME280;38541;48.130;8.378;2022-12-29T14:36:56;92354.75;;;8.85;68.33
52249;BME280;38541;48.130;8.378;2022-12-29T14:42:03;92348.97;;;8.89;68.84
52249;BME280;38541;48.130;8.378;2022-12-29T14:44:30;92339.56;;;8.93;68.82
52249;BME280;38541;48.130;8.378;2022-12-29T14:47:00;92357.38;;;8.91;68.77
52249;BME280;38541;48.130;8.378;2022-12-29T14:49:32;92351.31;;;8.90;68.72
52249;BME280;38541;48.130;8.378;2022-12-29T14:52:19;92349.50;;;8.91;68.40
52249;BME280;38541;48.130;8.378;2022-12-29T14:54:50;92337.47;;;8.90;68.40
52249;BME280;38541;48.130;8.378;2022-12-29T14:59:53;92346.88;;;8.85;68.93
52249;BME280;38541;48.130;8.378;2022-12-29T15:02:23;92345.84;;;8.92;68.51
52249;BME280;38541;48.130;8.378;2022-12-29T15:04:53;92355.00;;;8.89;67.96
52249;BME280;38541;48.130;8.378;2022-12-29T15:07:26;92355.78;;;8.95;68.16
52249;BME280;38541;48.130;8.378;2022-12-29T15:10:06;92352.91;;;8.86;68.06
52249;BME280;38541;48.130;8.378;2022-12-29T15:12:41;92344.25;;;8.91;68.01
52249;BME280;38541;48.130;8.378;2022-12-29T15:17:50;92358.41;;;8.84;67.86
52249;BME280;38541;48.130;8.378;2022-12-29T15:20:28;92370.44;;;8.80;67.46
52249;BME280;38541;48.130;8.378;2022-12-29T15:22:58;92371.50;;;8.84;67.68